WetterOnline ( https://www.wetteronline.ch )

Wetter aktuell Sonthofen/Oberallgäu

Aktuelles Wetter: Oberstdorf (812m)

6-stündlich | Neueste Meldungen
Ortszeit Temperatur Wetter
Mi, 24.04. 2:00 7.0° C bedeckt
Di, 23.04. 20:00 14.7° C bedeckt
Di, 23.04. 14:00 18.7° C bedeckt
Di, 23.04. 8:00 11.7° C bedeckt
Di, 23.04. 2:00 5.0° C leicht bewölkt
Mo, 22.04. 20:00 16.9° C leicht bewölkt
Mo, 22.04. 14:00 22.1° C fast wolkenlos
Mo, 22.04. 8:00 4.3° C bewölkt
Ortszeit Temperatur Wetter
Mi, 24.04. 6:00 3.7° C bewölkt
Mi, 24.04. 5:50 3.7° C bewölkt
Mi, 24.04. 5:40 5.0° C leicht bewölkt
Mi, 24.04. 5:30 5.5° C wolkenlos
Mi, 24.04. 5:20 5.5° C wolkenlos
Mi, 24.04. 5:10 5.2° C wolkenlos
Mi, 24.04. 5:00 5.7° C leicht bewölkt
Mi, 24.04. 4:30 5.7° C bewölkt
Mi, 24.04. 4:00 5.5° C bewölkt
Mi, 24.04. 3:30 5.3° C bedeckt
Mi, 24.04. 3:00 7.5° C bedeckt
Ortszeit Relative Feuchte Sichtweite
Mi, 24.04. 2:00 77% 70 km
Di, 23.04. 20:00 48% 70 km
Di, 23.04. 14:00 38% 70 km
Di, 23.04. 8:00 53% 45 km
Di, 23.04. 2:00 80% 30 km
Mo, 22.04. 20:00 37% 35 km
Mo, 22.04. 14:00 20% 55 km
Mo, 22.04. 8:00 79% 70 km
Ortszeit Relative Feuchte Sichtweite
Mi, 24.04. 6:00 85% 70 km
Mi, 24.04. 5:50 85% -
Mi, 24.04. 5:40 82% -
Mi, 24.04. 5:30 80% 70 km
Mi, 24.04. 5:20 80% -
Mi, 24.04. 5:10 78% -
Mi, 24.04. 5:00 80% 15 km
Mi, 24.04. 4:30 81% 70 km
Mi, 24.04. 4:00 81% 70 km
Mi, 24.04. 3:30 82% 70 km
Mi, 24.04. 3:00 75% 70 km
Ortszeit Niederschlagsmenge Niederschlagsart
Mi, 24.04. 2:00 0.0 l/m2 in 6 Std. -
Di, 23.04. 20:00 0.0 l/m2 in 12 Std. -
Di, 23.04. 14:00 0.0 l/m2 in 6 Std. -
Di, 23.04. 8:00 0.0 l/m2 in 12 Std. -
Di, 23.04. 2:00 0.0 l/m2 in 6 Std. -
Mo, 22.04. 20:00 0.0 l/m2 in 12 Std. -
Mo, 22.04. 14:00 0.0 l/m2 in 6 Std. -
Mo, 22.04. 8:00 0.0 l/m2 in 12 Std. -
Ortszeit Niederschlagsmenge Niederschlagsart
Mi, 24.04. 6:00 0.0 l/m2 in 1 Std. -
Mi, 24.04. 5:50 keine Meldung -
Mi, 24.04. 5:40 keine Meldung -
Mi, 24.04. 5:30 0.0 l/m2 in 1 Std. -
Mi, 24.04. 5:20 keine Meldung -
Mi, 24.04. 5:10 keine Meldung -
Mi, 24.04. 5:00 0.0 l/m2 in 1 Std. -
Mi, 24.04. 4:30 0.0 l/m2 in 1 Std. -
Mi, 24.04. 4:00 0.0 l/m2 in 1 Std. -
Mi, 24.04. 3:30 0.0 l/m2 in 1 Std. -
Mi, 24.04. 3:00 0.0 l/m2 in 1 Std. -
Ortszeit Stärke Spitze Richtung
km/h Bft. km/h Grad Sektor
Mi, 24.04. 2:00 7 2 22 170° S
Di, 23.04. 20:00 13 3 28 200° S
Di, 23.04. 14:00 4 1 18 310° NW
Di, 23.04. 8:00 17 3 20 150° SO
Di, 23.04. 2:00 4 1 18 20° N
Mo, 22.04. 20:00 14 3 25 130° SO
Mo, 22.04. 14:00 9 2 24 10° N
Mo, 22.04. 8:00 6 1 9 170° S
Ortszeit Stärke Spitze Richtung
km/h Bft. km/h Grad Sektor
Mi, 24.04. 6:00 6 1 9 190° S
Mi, 24.04. 5:50 6 1 - 190° S
Mi, 24.04. 5:40 7 2 - 170° S
Mi, 24.04. 5:30 4 1 11 50° NO
Mi, 24.04. 5:20 4 1 - 50° NO
Mi, 24.04. 5:10 6 1 - 180° S
Mi, 24.04. 5:00 4 1 14 140° SO
Mi, 24.04. 4:30 2 1 7 200° S
Mi, 24.04. 4:00 7 2 11 170° S
Mi, 24.04. 3:30 6 1 9 170° S
Mi, 24.04. 3:00 7 2 18 180° S
Ortszeit Untergrenze Bedeckung Gattung
total tief tief mittel hoch
Mi, 24.04. 2:00 4200 m 8/8 8/8 - - -
Di, 23.04. 20:00 5100 m 8/8 8/8 - - -
Di, 23.04. 14:00 3000 m 8/8 8/8 - - -
Di, 23.04. 8:00 2700 m 8/8 8/8 - - -
Di, 23.04. 2:00 8400 m 5/8 0/8 - - -
Mo, 22.04. 20:00 5700 m 5/8 1/8 - - -
Mo, 22.04. 14:00 7500 m 1/8 0/8 - - -
Mo, 22.04. 8:00 6900 m 7/8 7/8 - - -
Ortszeit Bedeckungsgrad in Achtel und Wolkenuntergrenze
Mi, 24.04. 6:00 7(4800m) 7(6000m)
Mi, 24.04. 5:50 7(4800m) 7(6000m)
Mi, 24.04. 5:40 4(4500m)
Mi, 24.04. 5:30 3(4500m)
Mi, 24.04. 5:20 keine Wolken
Mi, 24.04. 5:10 keine Wolken
Mi, 24.04. 5:00 2(4200m)
Mi, 24.04. 4:30 7(3900m)
Mi, 24.04. 4:00 7(3900m)
Mi, 24.04. 3:30 8(3900m)
Mi, 24.04. 3:00 8(4200m)
Ortszeit Stationsdruck (hPa) Tendenz (hPa in 3 Std.)
Mi, 24.04. 2:00 910 + 0,7
Di, 23.04. 20:00 908 + 0,5
Di, 23.04. 14:00 908 + 0,2
Di, 23.04. 8:00 908 - 0,2
Di, 23.04. 2:00 910 - 1,3
Mo, 22.04. 20:00 911 - 1,0
Mo, 22.04. 14:00 914 - 2,6
Mo, 22.04. 8:00 919 - 1,4
Ortszeit Stationsdruck (hPa) Tendenz (hPa in 3 Std.)
Mi, 24.04. 6:00 911 + 1,0
Mi, 24.04. 5:50 911 keine Meldung
Mi, 24.04. 5:40 911 keine Meldung
Mi, 24.04. 5:30 911 + 0,7
Mi, 24.04. 5:20 911 keine Meldung
Mi, 24.04. 5:10 911 keine Meldung
Mi, 24.04. 5:00 911 + 0,6
Mi, 24.04. 4:30 911 + 0,5
Mi, 24.04. 4:00 910 + 0,2
Mi, 24.04. 3:30 910 + 0,3
Mi, 24.04. 3:00 910 + 0,4
Ortszeit Schneehöhe (cm)
Mi, 24.04. 2:00 0
Di, 23.04. 20:00 0
Di, 23.04. 14:00 0
Di, 23.04. 8:00 0
Di, 23.04. 2:00 0
Mo, 22.04. 20:00 0
Mo, 22.04. 14:00 0
Mo, 22.04. 8:00 0
Ortszeit Schneehöhe (cm)
Mi, 24.04. 6:00 0
Mi, 24.04. 5:50 0
Mi, 24.04. 5:40 0
Mi, 24.04. 5:30 0
Mi, 24.04. 5:20 0
Mi, 24.04. 5:10 0
Mi, 24.04. 5:00 0
Mi, 24.04. 4:30 0
Mi, 24.04. 4:00 0
Mi, 24.04. 3:30 0
Mi, 24.04. 3:00 0
Link zu dieser Seite / Seite empfehlen

Das Wetter in ...